createdAt,value
2022-08-04T00:02:35.891Z,4.27
2022-08-04T00:08:32.133Z,5.77
2022-08-04T00:11:25.557Z,4.20
2022-08-04T00:17:06.175Z,3.93
2022-08-04T00:22:48.488Z,3.63
2022-08-04T00:28:27.166Z,3.43
2022-08-04T00:31:17.478Z,4.00
2022-08-04T00:37:01.621Z,5.50
2022-08-04T00:39:50.411Z,5.23
2022-08-04T00:42:58.786Z,5.33
2022-08-04T00:46:16.618Z,3.40
2022-08-04T00:52:32.204Z,5.63
2022-08-04T00:55:38.471Z,3.80
2022-08-04T00:58:36.096Z,4.47
2022-08-04T01:01:32.660Z,3.43
2022-08-04T01:07:19.046Z,3.40
2022-08-04T01:17:12.867Z,4.37
2022-08-04T01:23:25.451Z,9.07
2022-08-04T01:29:43.964Z,3.73
2022-08-04T01:35:21.795Z,4.57
2022-08-04T01:40:57.969Z,4.97
2022-08-04T01:43:48.006Z,4.70
2022-08-04T01:49:19.340Z,6.07
2022-08-04T01:54:59.167Z,4.07
2022-08-04T01:57:51.635Z,3.50
2022-08-04T02:04:18.384Z,5.47
2022-08-04T02:06:26.416Z,8.20
2022-08-04T02:12:04.526Z,5.50
2022-08-04T02:20:39.554Z,4.77
2022-08-04T02:26:22.002Z,4.83
2022-08-04T02:32:01.774Z,4.80
2022-08-04T02:37:40.624Z,4.37
2022-08-04T02:43:18.659Z,4.70
2022-08-04T02:46:17.775Z,3.43
2022-08-04T02:48:59.246Z,3.60
2022-08-04T02:57:30.948Z,4.27
2022-08-04T03:00:20.644Z,4.53
2022-08-04T03:06:57.755Z,5.30
2022-08-04T03:10:36.646Z,5.90
2022-08-04T03:16:53.607Z,3.67
2022-08-04T03:20:20.355Z,3.77
2022-08-04T03:27:11.670Z,3.50
2022-08-04T03:36:56.542Z,6.83
2022-08-04T03:43:57.446Z,6.97
2022-08-04T03:50:25.568Z,3.80
2022-08-04T03:56:58.986Z,5.07
2022-08-04T04:02:52.076Z,3.87
2022-08-04T04:06:03.990Z,4.50
2022-08-04T04:13:00.728Z,4.43
2022-08-04T04:16:18.584Z,3.90
2022-08-04T04:22:19.206Z,4.57
2022-08-04T04:28:43.780Z,3.87
2022-08-04T04:31:12.324Z,5.90
2022-08-04T04:37:03.980Z,5.20
2022-08-04T04:43:17.115Z,5.97
2022-08-04T04:49:04.640Z,3.50
2022-08-04T04:54:38.996Z,6.23
2022-08-04T05:00:16.663Z,7.43
2022-08-04T05:06:54.575Z,13.40
2022-08-04T05:14:32.719Z,7.37
2022-08-04T05:18:33.945Z,7.57
2022-08-04T05:24:19.955Z,4.10
2022-08-04T05:30:00.778Z,4.30
2022-08-04T05:36:18.036Z,5.60
2022-08-04T05:42:07.351Z,3.80
2022-08-04T05:47:58.407Z,6.33
2022-08-04T05:50:47.733Z,5.07
2022-08-04T05:56:26.967Z,5.13
2022-08-04T06:04:46.652Z,5.20
2022-08-04T06:10:29.191Z,6.53
2022-08-04T06:16:30.255Z,4.53
2022-08-04T06:22:06.099Z,6.80
2022-08-04T06:24:55.068Z,4.47
2022-08-04T06:30:31.823Z,4.00
2022-08-04T06:33:26.981Z,6.15
2022-08-04T06:39:14.347Z,4.12
2022-08-04T06:42:21.398Z,6.53
2022-08-04T06:44:58.995Z,5.17
2022-08-04T06:51:28.023Z,5.80
2022-08-04T06:56:07.274Z,4.50
2022-08-04T06:58:56.908Z,3.83
2022-08-04T07:04:33.859Z,5.78
2022-08-04T07:07:33.944Z,5.17
2022-08-04T07:13:14.681Z,6.00
2022-08-04T07:19:10.007Z,5.13
2022-08-04T07:24:55.917Z,5.63
2022-08-04T07:27:48.720Z,5.07
2022-08-04T07:33:22.971Z,9.43
2022-08-04T07:39:00.131Z,5.03
2022-08-04T07:41:49.200Z,7.10
2022-08-04T07:44:37.613Z,3.55
2022-08-04T07:50:17.890Z,7.15
2022-08-04T08:01:19.632Z,3.70
2022-08-04T08:06:53.787Z,3.73
2022-08-04T08:09:42.341Z,5.47
2022-08-04T08:15:32.918Z,5.85
2022-08-04T08:18:21.445Z,6.75
2022-08-04T08:23:58.886Z,5.00
2022-08-04T08:26:47.626Z,8.48
2022-08-04T08:32:23.441Z,4.30
2022-08-04T08:37:59.314Z,4.97
2022-08-04T08:44:05.057Z,6.12
2022-08-04T08:53:01.731Z,5.30
2022-08-04T08:58:42.155Z,6.12
2022-08-04T09:04:41.925Z,3.52
2022-08-04T09:07:46.786Z,5.28
2022-08-04T09:13:43.092Z,4.80
2022-08-04T09:19:37.407Z,4.92
2022-08-04T09:25:06.627Z,4.60
2022-08-04T09:27:57.321Z,3.13
2022-08-04T09:33:44.468Z,5.40
2022-08-04T09:36:35.808Z,9.13
2022-08-04T09:39:27.751Z,6.00
2022-08-04T09:45:42.554Z,3.27
2022-08-04T09:54:30.477Z,3.60
2022-08-04T10:00:09.282Z,3.37
2022-08-04T10:03:00.968Z,5.80
2022-08-04T10:08:46.839Z,6.40
2022-08-04T10:17:00.467Z,3.37
2022-08-04T10:23:09.306Z,2.60
2022-08-04T10:28:41.246Z,3.58
2022-08-04T10:34:20.122Z,5.10
2022-08-04T10:40:22.492Z,4.50
2022-08-04T10:46:03.113Z,3.37
2022-08-04T10:51:57.818Z,4.12
2022-08-04T10:57:22.998Z,5.58
2022-08-04T11:03:08.925Z,4.50
2022-08-04T11:05:58.969Z,4.67
2022-08-04T11:08:50.990Z,4.08
2022-08-04T11:14:38.888Z,2.85
2022-08-04T11:20:35.530Z,2.55
2022-08-04T11:23:17.938Z,1.95
2022-08-04T11:29:03.883Z,3.12
2022-08-04T11:34:39.034Z,7.20
2022-08-04T11:37:31.907Z,2.10
2022-08-04T11:43:12.660Z,2.50
2022-08-04T11:48:51.813Z,2.00
2022-08-04T11:54:27.648Z,4.05
2022-08-04T12:00:10.925Z,4.33
2022-08-04T12:06:13.709Z,4.17
2022-08-04T12:12:06.244Z,4.15
2022-08-04T12:17:52.468Z,3.15
2022-08-04T12:23:28.060Z,4.03
2022-08-04T12:29:09.991Z,2.90
2022-08-04T12:34:52.817Z,3.55
2022-08-04T12:37:49.880Z,1.72
2022-08-04T12:43:30.190Z,1.70
2022-08-04T12:46:23.635Z,4.65
2022-08-04T12:52:08.221Z,6.03
2022-08-04T12:57:43.156Z,2.52
2022-08-04T13:03:25.916Z,2.20
2022-08-04T13:06:23.373Z,1.50
2022-08-04T13:12:13.821Z,2.75
2022-08-04T13:15:10.078Z,1.52
2022-08-04T13:18:00.422Z,2.10
2022-08-04T13:20:50.004Z,3.12
2022-08-04T13:24:09.569Z,2.42
2022-08-04T13:26:43.390Z,2.05
2022-08-04T13:32:04.663Z,5.05
2022-08-04T13:37:41.571Z,3.35
2022-08-04T13:40:30.891Z,3.80
2022-08-04T13:46:27.226Z,5.08
2022-08-04T13:52:10.887Z,2.72
2022-08-04T13:57:47.348Z,2.62
2022-08-04T14:03:31.512Z,1.87
2022-08-04T14:06:22.617Z,2.52
2022-08-04T14:12:38.132Z,1.80
2022-08-04T14:14:56.188Z,1.60
2022-08-04T14:20:31.337Z,1.80
2022-08-04T14:23:19.953Z,7.60
2022-08-04T14:26:21.051Z,2.67
2022-08-04T14:32:10.409Z,2.58
2022-08-04T14:34:55.099Z,2.75
2022-08-04T14:40:31.486Z,2.83
2022-08-04T14:46:12.566Z,3.33
2022-08-04T14:49:11.012Z,1.47
2022-08-04T14:54:48.243Z,2.50
2022-08-04T15:03:15.584Z,3.65
2022-08-04T15:08:52.086Z,2.40
2022-08-04T15:11:43.406Z,3.52
2022-08-04T15:14:38.218Z,3.25
2022-08-04T15:17:30.522Z,2.67
2022-08-04T15:20:19.067Z,2.40
2022-08-04T15:23:10.750Z,4.97
2022-08-04T15:26:01.350Z,3.95
2022-08-04T15:32:15.418Z,5.08
2022-08-04T15:35:09.452Z,2.67
2022-08-04T15:40:52.711Z,5.35
2022-08-04T15:46:53.026Z,2.90
2022-08-04T15:49:46.555Z,2.37
2022-08-04T15:53:12.615Z,4.37
2022-08-04T15:58:54.644Z,5.33
2022-08-04T16:04:30.447Z,2.60
2022-08-04T16:13:30.529Z,1.87
2022-08-04T16:19:24.401Z,1.82
2022-08-04T16:24:56.009Z,2.62
2022-08-04T16:30:31.195Z,3.27
2022-08-04T16:33:21.818Z,1.57
2022-08-04T16:36:15.545Z,1.62
2022-08-04T16:39:07.187Z,7.50
2022-08-04T16:44:57.443Z,3.52
2022-08-04T16:48:10.857Z,2.50
2022-08-04T16:51:05.845Z,4.97
2022-08-04T16:56:40.280Z,2.17
2022-08-04T16:59:30.660Z,3.35
2022-08-04T17:05:39.575Z,3.55
2022-08-04T17:08:29.652Z,2.87
2022-08-04T17:11:09.949Z,2.87
2022-08-04T17:14:05.363Z,3.15
2022-08-04T17:19:36.133Z,3.40
2022-08-04T17:25:07.974Z,6.20
2022-08-04T17:28:18.433Z,3.58
2022-08-04T17:33:54.857Z,3.55
2022-08-04T17:36:31.614Z,2.27
2022-08-04T17:39:24.495Z,2.17
2022-08-04T17:54:02.542Z,2.90
2022-08-04T17:56:53.462Z,4.28
2022-08-04T18:02:34.981Z,3.40
2022-08-04T18:08:39.536Z,5.35
2022-08-04T18:20:47.046Z,3.42
2022-08-04T18:26:24.915Z,2.22
2022-08-04T18:29:31.691Z,2.67
2022-08-04T18:32:09.509Z,4.10
2022-08-04T18:34:58.259Z,2.92
2022-08-04T18:40:59.745Z,4.53
2022-08-04T18:46:52.844Z,4.53
2022-08-04T18:52:26.684Z,4.90
2022-08-04T19:01:15.446Z,20.50
2022-08-04T19:07:23.274Z,31.30
2022-08-04T19:12:45.510Z,30.80
2022-08-04T19:15:34.498Z,16.80
2022-08-04T19:18:23.194Z,15.78
2022-08-04T19:21:12.274Z,23.17
2022-08-04T19:26:50.101Z,19.03
2022-08-04T19:32:26.544Z,14.23
2022-08-04T19:35:19.357Z,15.37
2022-08-04T19:40:59.054Z,11.50
2022-08-04T19:46:30.936Z,4.33
2022-08-04T19:54:51.474Z,4.30
2022-08-04T19:57:41.519Z,3.40
2022-08-04T20:00:33.961Z,4.00
2022-08-04T20:11:43.382Z,4.53
2022-08-04T20:17:21.342Z,2.90
2022-08-04T20:20:15.067Z,3.63
2022-08-04T20:23:04.545Z,3.33
2022-08-04T20:25:54.041Z,6.10
2022-08-04T20:31:31.849Z,3.13
2022-08-04T20:37:07.821Z,4.07
2022-08-04T20:42:46.243Z,4.10
2022-08-04T20:45:56.749Z,4.23
2022-08-04T20:48:25.728Z,3.33
2022-08-04T20:54:02.282Z,4.97
2022-08-04T20:59:38.668Z,3.60
2022-08-04T21:05:09.564Z,3.40
2022-08-04T21:07:58.947Z,2.97
2022-08-04T21:13:52.334Z,3.10
2022-08-04T21:16:53.833Z,4.80
2022-08-04T21:19:18.850Z,6.50
2022-08-04T21:22:10.523Z,2.60
2022-08-04T21:27:47.864Z,5.90
2022-08-04T21:30:52.870Z,4.13
2022-08-04T21:33:50.687Z,4.40
2022-08-04T21:39:18.441Z,3.53
2022-08-04T21:45:18.630Z,3.53
2022-08-04T21:54:14.930Z,7.27
2022-08-04T22:02:24.531Z,5.70
2022-08-04T22:05:15.921Z,4.77
2022-08-04T22:10:52.845Z,2.90
2022-08-04T22:16:22.397Z,4.33
2022-08-04T22:21:57.566Z,3.10
2022-08-04T22:28:04.460Z,4.27
2022-08-04T22:33:55.235Z,3.77
2022-08-04T22:36:39.687Z,3.67
2022-08-04T22:42:17.443Z,4.63
2022-08-04T22:45:09.853Z,4.07
2022-08-04T22:48:13.350Z,4.13
2022-08-04T22:53:48.874Z,3.07
2022-08-04T22:56:38.359Z,2.73
2022-08-04T22:59:23.459Z,3.80
2022-08-04T23:04:58.421Z,4.20
2022-08-04T23:07:49.197Z,3.30
2022-08-04T23:13:17.465Z,5.77
2022-08-04T23:16:11.008Z,4.13
2022-08-04T23:21:47.810Z,3.00
2022-08-04T23:27:23.967Z,4.73
2022-08-04T23:33:02.778Z,4.00
2022-08-04T23:35:58.034Z,4.63
2022-08-04T23:38:43.875Z,3.27
2022-08-04T23:44:17.461Z,3.33
2022-08-04T23:49:47.399Z,3.10
2022-08-04T23:55:19.221Z,3.80
2022-08-04T23:58:18.531Z,3.87
